createdAt,value
2022-11-12T00:02:11.869Z,31.17
2022-11-12T00:04:58.685Z,34.10
2022-11-12T00:07:49.238Z,32.67
2022-11-12T00:10:35.876Z,30.98
2022-11-12T00:13:22.760Z,34.63
2022-11-12T00:16:09.966Z,29.65
2022-11-12T00:18:56.686Z,38.38
2022-11-12T00:21:43.606Z,31.90
2022-11-12T00:24:32.193Z,34.30
2022-11-12T00:27:19.204Z,30.38
2022-11-12T00:30:07.526Z,30.75
2022-11-12T00:32:54.419Z,31.77
2022-11-12T00:35:40.891Z,32.38
2022-11-12T00:38:27.937Z,27.73
2022-11-12T00:41:16.728Z,29.45
2022-11-12T00:44:03.087Z,28.23
2022-11-12T00:46:49.938Z,26.50
2022-11-12T00:49:36.541Z,25.60
2022-11-12T00:52:23.613Z,29.17
2022-11-12T00:55:10.617Z,32.17
2022-11-12T00:57:59.223Z,29.60
2022-11-12T01:00:46.099Z,30.27
2022-11-12T01:03:32.949Z,33.35
2022-11-12T01:06:21.814Z,27.58
2022-11-12T01:09:08.721Z,27.58
2022-11-12T01:11:55.715Z,27.83
2022-11-12T01:14:43.631Z,30.48
2022-11-12T01:17:30.556Z,24.25
2022-11-12T01:20:17.093Z,30.42
2022-11-12T01:23:04.113Z,25.40
2022-11-12T01:25:50.664Z,26.33
2022-11-12T01:28:38.278Z,27.83
2022-11-12T01:31:28.143Z,29.30
2022-11-12T01:34:14.713Z,23.60
2022-11-12T01:37:01.769Z,30.67
2022-11-12T01:39:48.769Z,27.63
2022-11-12T01:42:35.643Z,26.25
2022-11-12T01:45:23.654Z,27.67
2022-11-12T01:48:22.667Z,25.45
2022-11-12T01:51:12.427Z,29.40
2022-11-12T01:54:02.076Z,28.80
2022-11-12T01:56:50.782Z,26.92
2022-11-12T01:59:42.833Z,32.05
2022-11-12T02:02:29.917Z,27.60
2022-11-12T02:05:20.041Z,26.48
2022-11-12T02:08:11.039Z,26.13
2022-11-12T02:10:57.989Z,29.55
2022-11-12T02:13:57.877Z,28.65
2022-11-12T02:16:46.744Z,23.33
2022-11-12T02:19:37.710Z,28.42
2022-11-12T02:22:25.568Z,25.92
2022-11-12T02:25:17.922Z,26.98
2022-11-12T02:28:08.007Z,22.75
2022-11-12T02:30:54.908Z,22.73
2022-11-12T02:33:41.873Z,27.20
2022-11-12T02:36:29.476Z,24.10
2022-11-12T02:39:17.918Z,27.58
2022-11-12T02:42:05.190Z,27.85
2022-11-12T02:44:52.296Z,25.90
2022-11-12T02:47:38.862Z,24.48
2022-11-12T02:50:25.845Z,25.88
2022-11-12T02:53:12.383Z,29.05
2022-11-12T02:56:00.637Z,25.48
2022-11-12T02:58:47.250Z,24.90
2022-11-12T03:01:34.328Z,23.70
2022-11-12T03:04:21.161Z,27.65
2022-11-12T03:07:07.933Z,24.92
2022-11-12T03:09:54.559Z,24.67
2022-11-12T03:12:42.421Z,23.58
2022-11-12T03:15:30.620Z,23.55
2022-11-12T03:18:17.436Z,26.85
2022-11-12T03:21:04.619Z,27.48
2022-11-12T03:23:51.301Z,23.05
2022-11-12T03:26:38.284Z,23.85
2022-11-12T03:29:27.308Z,25.33
2022-11-12T03:32:14.400Z,22.75
2022-11-12T03:35:00.920Z,23.88
2022-11-12T03:37:47.620Z,25.20
2022-11-12T03:40:35.416Z,22.70
2022-11-12T03:43:22.231Z,23.02
2022-11-12T03:46:10.377Z,26.10
2022-11-12T03:48:56.785Z,25.85
2022-11-12T03:51:43.373Z,27.17
2022-11-12T03:54:30.340Z,24.55
2022-11-12T03:57:16.707Z,27.65
2022-11-12T04:00:04.676Z,23.08
2022-11-12T04:02:53.252Z,27.60
2022-11-12T04:05:57.355Z,22.30
2022-11-12T04:08:44.125Z,23.55
2022-11-12T04:11:30.793Z,20.95
2022-11-12T04:14:17.689Z,23.65
2022-11-12T04:17:22.005Z,20.25
2022-11-12T04:20:34.625Z,26.08
2022-11-12T04:23:21.212Z,25.85
2022-11-12T04:26:24.797Z,22.80
2022-11-12T04:29:29.023Z,23.73
2022-11-12T04:32:15.612Z,26.40
2022-11-12T04:35:03.344Z,26.40
2022-11-12T04:37:51.550Z,26.73
2022-11-12T04:40:55.971Z,24.42
2022-11-12T04:43:59.977Z,22.83
2022-11-12T04:46:46.753Z,26.20
2022-11-12T04:49:33.479Z,31.33
2022-11-12T04:52:20.444Z,27.15
2022-11-12T04:55:09.990Z,24.02
2022-11-12T04:58:00.641Z,26.40
2022-11-12T05:00:48.707Z,23.85
2022-11-12T05:03:35.294Z,25.17
2022-11-12T05:06:39.174Z,27.52
2022-11-12T05:09:27.433Z,22.48
2022-11-12T05:12:15.510Z,26.27
2022-11-12T05:15:02.711Z,29.83
2022-11-12T05:17:49.306Z,34.35
2022-11-12T05:20:36.773Z,34.47
2022-11-12T05:23:23.022Z,29.08
2022-11-12T05:26:09.955Z,30.60
2022-11-12T05:28:57.712Z,33.17
2022-11-12T05:31:44.537Z,37.33
2022-11-12T05:34:31.523Z,29.80
2022-11-12T05:37:18.485Z,38.17
2022-11-12T05:40:05.753Z,34.83
2022-11-12T05:42:52.452Z,34.50
2022-11-12T05:45:43.257Z,32.08
2022-11-12T05:48:30.654Z,29.00
2022-11-12T05:51:17.703Z,34.50
2022-11-12T05:54:05.303Z,32.28
2022-11-12T05:56:52.919Z,37.58
2022-11-12T05:59:39.615Z,35.33
2022-11-12T06:02:27.651Z,36.92
2022-11-12T06:05:14.599Z,37.20
2022-11-12T06:08:02.109Z,31.77
2022-11-12T06:10:50.153Z,33.78
2022-11-12T06:13:37.079Z,33.25
2022-11-12T06:16:23.720Z,32.97
2022-11-12T06:19:12.093Z,34.00
2022-11-12T06:21:58.821Z,34.25
2022-11-12T06:24:45.701Z,34.00
2022-11-12T06:27:32.624Z,33.35
2022-11-12T06:30:25.402Z,32.78
2022-11-12T06:33:12.670Z,34.42
2022-11-12T06:36:03.149Z,34.40
2022-11-12T06:38:50.371Z,32.33
2022-11-12T06:41:37.016Z,35.38
2022-11-12T06:44:24.009Z,34.30
2022-11-12T06:47:10.649Z,35.30
2022-11-12T06:49:57.340Z,34.08
2022-11-12T06:52:45.811Z,34.45
2022-11-12T06:55:32.551Z,33.45
2022-11-12T06:58:19.594Z,30.67
2022-11-12T07:01:11.612Z,38.00
2022-11-12T07:03:58.835Z,33.58
2022-11-12T07:06:45.920Z,33.10
2022-11-12T07:09:34.137Z,37.72
2022-11-12T07:12:21.259Z,35.45
2022-11-12T07:15:08.404Z,38.33
2022-11-12T07:17:55.034Z,40.75
2022-11-12T07:20:41.973Z,38.40
2022-11-12T07:23:31.039Z,43.58
2022-11-12T07:26:21.239Z,46.10
2022-11-12T07:29:08.304Z,44.78
2022-11-12T07:31:54.955Z,45.60
2022-11-12T07:34:41.877Z,49.08
2022-11-12T07:37:28.316Z,46.85
2022-11-12T07:40:16.187Z,48.53
2022-11-12T07:43:04.296Z,46.67
2022-11-12T07:45:51.273Z,46.38
2022-11-12T07:48:37.861Z,48.00
2022-11-12T07:51:26.758Z,50.60
2022-11-12T07:54:13.832Z,50.55
2022-11-12T07:57:00.841Z,51.50
2022-11-12T07:59:49.427Z,50.78
2022-11-12T08:02:36.349Z,49.97
2022-11-12T08:05:23.267Z,54.08
2022-11-12T08:08:11.242Z,50.97
2022-11-12T08:10:58.046Z,47.15
2022-11-12T08:13:44.721Z,48.58
2022-11-12T08:16:32.921Z,51.42
2022-11-12T08:19:19.735Z,54.58
2022-11-12T08:22:06.240Z,52.53
2022-11-12T08:24:53.340Z,46.47
2022-11-12T08:27:39.859Z,48.00
2022-11-12T08:30:27.314Z,46.67
2022-11-12T08:33:15.530Z,51.05
2022-11-12T08:36:04.335Z,46.78
2022-11-12T08:38:53.639Z,46.30
2022-11-12T08:41:40.574Z,53.20
2022-11-12T08:44:27.483Z,47.72
2022-11-12T08:47:14.601Z,45.55
2022-11-12T08:50:02.430Z,49.08
2022-11-12T08:52:49.345Z,56.47
2022-11-12T08:55:37.064Z,49.10
2022-11-12T08:58:24.497Z,47.30
2022-11-12T09:01:13.154Z,54.03
2022-11-12T09:04:00.096Z,44.13
2022-11-12T09:06:53.624Z,49.35
2022-11-12T09:09:40.779Z,53.80
2022-11-12T09:12:28.167Z,47.53
2022-11-12T09:18:21.593Z,55.63
2022-11-12T09:21:11.060Z,47.85
2022-11-12T09:23:59.518Z,47.95
2022-11-12T09:26:46.375Z,49.92
2022-11-12T09:29:33.246Z,52.22
2022-11-12T09:32:19.870Z,50.13
2022-11-12T09:35:07.971Z,47.85
2022-11-12T09:37:54.607Z,51.00
2022-11-12T09:41:09.234Z,49.30
2022-11-12T09:44:01.089Z,51.83
2022-11-12T09:46:52.745Z,51.97
2022-11-12T09:49:45.595Z,53.58
2022-11-12T09:52:32.840Z,53.65
2022-11-12T09:55:25.247Z,56.67
2022-11-12T09:58:15.094Z,53.17
2022-11-12T10:01:08.058Z,58.78
2022-11-12T10:04:05.358Z,57.55
2022-11-12T10:07:01.379Z,58.03
2022-11-12T10:10:00.577Z,57.03
2022-11-12T10:13:00.558Z,58.47
2022-11-12T10:16:37.355Z,63.85
2022-11-12T10:19:32.585Z,52.95
2022-11-12T10:22:41.214Z,60.22
2022-11-12T10:25:28.194Z,56.17
2022-11-12T10:28:24.267Z,61.70
2022-11-12T10:31:15.729Z,61.38
2022-11-12T10:34:16.951Z,56.92
2022-11-12T10:37:07.163Z,56.97
2022-11-12T10:39:54.331Z,70.35
2022-11-12T10:42:58.659Z,55.20
2022-11-12T10:45:52.025Z,61.15
2022-11-12T10:48:39.982Z,59.58
2022-11-12T10:51:31.875Z,53.30
2022-11-12T10:54:29.650Z,59.35
2022-11-12T10:57:24.958Z,61.25
2022-11-12T11:00:22.050Z,56.45
2022-11-12T11:03:18.796Z,59.67
2022-11-12T11:06:11.417Z,51.25
2022-11-12T11:09:15.586Z,51.70
2022-11-12T11:12:02.399Z,54.97
2022-11-12T11:15:05.781Z,62.90
2022-11-12T11:17:52.925Z,61.28
2022-11-12T11:20:47.871Z,59.20
2022-11-12T11:23:48.262Z,52.58
2022-11-12T11:26:43.463Z,50.92
2022-11-12T11:29:57.722Z,56.55
2022-11-12T11:33:00.940Z,57.38
2022-11-12T11:36:08.940Z,58.53
2022-11-12T11:39:05.570Z,56.05
2022-11-12T11:42:07.168Z,54.42
2022-11-12T11:45:03.190Z,55.30
2022-11-12T11:48:01.749Z,55.40
2022-11-12T11:50:58.665Z,55.17
2022-11-12T11:53:54.556Z,52.22
2022-11-12T11:56:46.202Z,55.05
2022-11-12T11:59:44.755Z,51.78
2022-11-12T12:02:55.777Z,50.95
2022-11-12T12:05:47.508Z,50.10
2022-11-12T12:08:49.406Z,57.47
2022-11-12T12:11:44.063Z,54.83
2022-11-12T12:14:49.755Z,55.97
2022-11-12T12:17:48.938Z,56.05
2022-11-12T12:20:45.825Z,49.72
2022-11-12T12:23:36.510Z,50.42
2022-11-12T12:26:28.088Z,45.67
2022-11-12T12:29:18.088Z,44.47
2022-11-12T12:32:11.935Z,46.22
2022-11-12T12:35:04.677Z,41.13
2022-11-12T12:37:58.328Z,43.33
2022-11-12T12:40:53.429Z,46.63
2022-11-12T12:43:46.661Z,39.65
2022-11-12T12:46:40.476Z,39.35
2022-11-12T12:49:35.301Z,38.45
2022-11-12T12:52:22.200Z,41.38
2022-11-12T12:55:36.906Z,44.38
2022-11-12T12:58:28.726Z,36.13
2022-11-12T13:01:32.415Z,40.38
2022-11-12T13:04:53.604Z,37.78
2022-11-12T13:07:43.425Z,38.20
2022-11-12T13:10:49.494Z,37.42
2022-11-12T13:13:37.529Z,35.97
2022-11-12T13:16:58.308Z,33.88
2022-11-12T13:19:47.707Z,32.30
2022-11-12T13:22:51.483Z,30.42
2022-11-12T13:25:38.835Z,34.42
2022-11-12T13:28:29.014Z,31.30
2022-11-12T13:31:28.403Z,34.38
2022-11-12T13:34:21.911Z,33.90
2022-11-12T13:37:21.069Z,35.42
2022-11-12T13:40:14.221Z,29.33
2022-11-12T13:43:15.949Z,28.55
2022-11-12T13:46:28.245Z,29.95
2022-11-12T13:49:18.064Z,31.70
2022-11-12T13:52:07.259Z,28.75
2022-11-12T13:55:02.882Z,29.42
2022-11-12T13:57:54.814Z,29.80
2022-11-12T14:00:41.841Z,32.00
2022-11-12T14:03:31.989Z,37.85
2022-11-12T14:06:25.991Z,31.67
2022-11-12T14:09:46.131Z,32.45
2022-11-12T14:12:49.382Z,34.67
2022-11-12T14:15:55.585Z,37.30
2022-11-12T14:19:09.782Z,34.60
2022-11-12T14:22:11.894Z,36.03
2022-11-12T14:25:02.533Z,37.53
2022-11-12T14:27:50.063Z,43.35
2022-11-12T14:30:46.245Z,39.25
2022-11-12T14:33:33.693Z,45.33
2022-11-12T14:36:22.021Z,43.53
2022-11-12T14:39:11.775Z,42.40
2022-11-12T14:42:00.393Z,44.75
2022-11-12T14:44:47.313Z,41.13
2022-11-12T14:47:35.558Z,46.17
2022-11-12T14:50:26.167Z,43.00
2022-11-12T14:53:24.672Z,49.35
2022-11-12T14:56:17.611Z,47.13
2022-11-12T14:59:05.599Z,48.65
2022-11-12T15:02:29.532Z,47.20
2022-11-12T15:05:19.455Z,51.70
2022-11-12T15:08:11.395Z,45.20
2022-11-12T15:10:59.114Z,46.05
2022-11-12T15:13:46.990Z,43.08
2022-11-12T15:16:35.597Z,43.95
2022-11-12T15:19:24.481Z,46.47
2022-11-12T15:22:22.143Z,45.47
2022-11-12T15:25:19.604Z,43.58
2022-11-12T15:28:22.765Z,47.50
2022-11-12T15:31:18.725Z,46.08
2022-11-12T15:34:28.951Z,46.10
2022-11-12T15:37:25.814Z,51.08
2022-11-12T15:40:18.793Z,45.13
2022-11-12T15:43:11.869Z,46.20
2022-11-12T15:45:58.858Z,50.05
2022-11-12T15:48:45.225Z,52.25
2022-11-12T15:51:31.908Z,48.53
2022-11-12T15:54:19.991Z,49.65
2022-11-12T15:57:06.508Z,43.90
2022-11-12T16:00:01.620Z,46.53
2022-11-12T16:02:57.199Z,49.75
2022-11-12T16:05:43.986Z,46.42
2022-11-12T16:08:31.009Z,43.65
2022-11-12T16:11:37.320Z,45.33
2022-11-12T16:14:25.332Z,48.63
2022-11-12T16:17:14.817Z,51.67
2022-11-12T16:20:01.474Z,46.63
2022-11-12T16:22:48.815Z,39.47
2022-11-12T16:25:38.512Z,37.22
2022-11-12T16:28:28.330Z,38.42
2022-11-12T16:31:15.407Z,37.03
2022-11-12T16:34:02.227Z,39.08
2022-11-12T16:36:50.034Z,41.10
2022-11-12T16:39:37.080Z,41.30
2022-11-12T16:42:24.098Z,43.30
2022-11-12T16:45:12.885Z,42.80
2022-11-12T16:47:59.431Z,39.38
2022-11-12T16:50:46.526Z,41.25
2022-11-12T16:53:33.391Z,39.60
2022-11-12T16:56:24.689Z,44.97
2022-11-12T16:59:14.339Z,39.60
2022-11-12T17:02:02.824Z,40.78
2022-11-12T17:04:52.219Z,40.97
2022-11-12T17:07:39.233Z,40.95
2022-11-12T17:10:26.502Z,38.05
2022-11-12T17:13:14.155Z,40.47
2022-11-12T17:16:02.359Z,42.75
2022-11-12T17:18:53.759Z,39.05
2022-11-12T17:21:42.257Z,37.40
2022-11-12T17:24:29.411Z,37.33
2022-11-12T17:27:16.183Z,41.67
2022-11-12T17:30:07.783Z,36.53
2022-11-12T17:32:54.722Z,37.88
2022-11-12T17:35:43.097Z,37.58
2022-11-12T17:38:29.988Z,40.83
2022-11-12T17:41:16.870Z,39.38
2022-11-12T17:44:04.047Z,38.13
2022-11-12T17:46:51.394Z,43.03
2022-11-12T17:49:38.228Z,39.63
2022-11-12T17:52:26.733Z,41.20
2022-11-12T17:55:13.783Z,42.95
2022-11-12T17:58:01.413Z,37.65
2022-11-12T18:00:51.972Z,40.85
2022-11-12T18:03:42.833Z,42.88
2022-11-12T18:06:31.474Z,36.97
2022-11-12T18:09:20.858Z,42.03
2022-11-12T18:12:07.783Z,38.28
2022-11-12T18:14:54.453Z,40.00
2022-11-12T18:17:41.508Z,36.60
2022-11-12T18:20:28.251Z,40.78
2022-11-12T18:23:15.356Z,41.65
2022-11-12T18:26:03.699Z,41.40
2022-11-12T18:28:52.769Z,40.47
2022-11-12T18:31:40.643Z,45.72
2022-11-12T18:34:27.478Z,44.05
2022-11-12T18:37:14.541Z,52.80
2022-11-12T18:40:03.541Z,66.13
2022-11-12T18:42:54.174Z,61.88
2022-11-12T18:45:42.570Z,61.00
2022-11-12T18:48:32.173Z,55.05
2022-11-12T18:51:20.231Z,56.20
2022-11-12T18:54:09.221Z,56.15
2022-11-12T18:56:55.964Z,48.85
2022-11-12T18:59:45.739Z,58.45
2022-11-12T19:02:33.112Z,52.88
2022-11-12T19:05:22.828Z,53.25
2022-11-12T19:08:09.806Z,54.50
2022-11-12T19:10:59.780Z,52.55
2022-11-12T19:13:46.870Z,56.63
2022-11-12T19:16:34.759Z,62.15
2022-11-12T19:19:21.822Z,59.63
2022-11-12T19:22:10.246Z,64.63
2022-11-12T19:24:57.319Z,73.68
2022-11-12T19:27:43.976Z,62.00
2022-11-12T19:30:31.167Z,60.55
2022-11-12T19:33:19.704Z,65.80
2022-11-12T19:36:07.523Z,63.83
2022-11-12T19:38:56.691Z,70.60
2022-11-12T19:41:43.705Z,65.03
2022-11-12T19:44:31.610Z,65.15
2022-11-12T19:47:18.186Z,64.38
2022-11-12T19:50:07.631Z,63.20
2022-11-12T19:52:55.288Z,64.03
2022-11-12T19:55:42.259Z,68.03
2022-11-12T19:58:29.185Z,62.40
2022-11-12T20:01:18.081Z,64.70
2022-11-12T20:04:05.247Z,69.72
2022-11-12T20:06:53.319Z,69.20
2022-11-12T20:09:40.177Z,65.32
2022-11-12T20:12:27.230Z,64.65
2022-11-12T20:15:14.508Z,67.07
2022-11-12T20:18:01.333Z,67.85
2022-11-12T20:20:49.658Z,66.82
2022-11-12T20:23:39.031Z,67.43
2022-11-12T20:26:26.955Z,70.68
2022-11-12T20:29:13.647Z,71.65
2022-11-12T20:32:00.426Z,65.38
2022-11-12T20:34:48.805Z,71.38
2022-11-12T20:37:35.880Z,71.57
2022-11-12T20:40:24.145Z,77.68
2022-11-12T20:43:11.289Z,74.53
2022-11-12T20:45:58.472Z,84.25
2022-11-12T20:48:45.633Z,77.63
2022-11-12T20:51:33.747Z,74.20
2022-11-12T20:54:20.936Z,77.05
2022-11-12T20:57:10.261Z,72.25
2022-11-12T20:59:56.596Z,75.45
2022-11-12T21:02:43.686Z,77.13
2022-11-12T21:05:30.255Z,76.80
2022-11-12T21:08:17.083Z,80.28
2022-11-12T21:11:07.099Z,76.43
2022-11-12T21:13:55.267Z,82.63
2022-11-12T21:16:42.433Z,74.53
2022-11-12T21:19:29.541Z,75.43
2022-11-12T21:22:18.855Z,80.63
2022-11-12T21:25:06.029Z,77.88
2022-11-12T21:27:53.187Z,77.63
2022-11-12T21:30:41.295Z,77.72
2022-11-12T21:33:28.014Z,74.25
2022-11-12T21:36:16.514Z,83.80
2022-11-12T21:39:04.622Z,77.95
2022-11-12T21:41:53.944Z,71.68
2022-11-12T21:44:40.971Z,74.20
2022-11-12T21:47:29.227Z,79.88
2022-11-12T21:50:15.932Z,75.95
2022-11-12T21:53:02.713Z,72.15
2022-11-12T21:55:49.626Z,70.68
2022-11-12T21:58:37.063Z,73.13
2022-11-12T22:01:26.251Z,72.72
2022-11-12T22:04:18.289Z,74.47
2022-11-12T22:07:05.809Z,69.53
2022-11-12T22:09:56.552Z,74.85
2022-11-12T22:13:05.067Z,75.03
2022-11-12T22:15:50.899Z,75.93
2022-11-12T22:18:37.994Z,85.03
2022-11-12T22:21:31.286Z,85.75
2022-11-12T22:24:20.208Z,90.22
2022-11-12T22:27:10.000Z,95.32
2022-11-12T22:30:00.705Z,80.57
2022-11-12T22:32:47.531Z,85.45
2022-11-12T22:35:34.448Z,87.22
2022-11-12T22:38:25.048Z,82.90
2022-11-12T22:41:13.397Z,83.35
2022-11-12T22:44:02.165Z,88.32
2022-11-12T22:46:49.228Z,80.93
2022-11-12T22:49:36.009Z,74.97
2022-11-12T22:52:22.383Z,86.60
2022-11-12T22:55:10.912Z,77.88
2022-11-12T22:58:00.533Z,84.15
2022-11-12T23:00:47.742Z,76.78
2022-11-12T23:03:43.802Z,79.85
2022-11-12T23:06:31.371Z,83.45
2022-11-12T23:09:21.402Z,84.15
2022-11-12T23:12:09.440Z,82.28
2022-11-12T23:14:55.931Z,81.88
2022-11-12T23:17:42.823Z,87.15
2022-11-12T23:20:29.875Z,84.93
2022-11-12T23:23:17.022Z,99.20
2022-11-12T23:26:05.736Z,92.25
2022-11-12T23:28:53.992Z,86.22
2022-11-12T23:31:41.133Z,82.90
2022-11-12T23:34:27.815Z,81.50
2022-11-12T23:37:14.153Z,82.72
2022-11-12T23:40:00.982Z,87.45
2022-11-12T23:42:47.353Z,81.05
2022-11-12T23:45:38.570Z,82.10
2022-11-12T23:48:25.509Z,81.35
2022-11-12T23:51:13.882Z,79.13
2022-11-12T23:54:00.410Z,76.10
2022-11-12T23:56:47.361Z,80.25
2022-11-12T23:59:33.799Z,84.18
